Terminal Aerodrome Forecast
Issued by NWS Shreveport, LA

Home | Current Version | Previous Version | Text Only | Print | Product List | Glossary On
Versions: 1 2 3 4 5 6 7 8 9 10 11 12 13 14 15
855
FTUS44 KSHV 250540
TAFGGG
TAF
KGGG 250540Z 2506/2606 VRB03KT P6SM SCT250
     FM251200 VRB03KT P6SM SCT080 BKN250
     FM251500 26007KT P6SM SCT070 BKN250
     FM251800 29010KT P6SM SCT060 BKN250
     FM260000 32012KT P6SM VCSH OVC030=

USA.gov is the U.S. government's official web portal to all federal, state and local government web resources and services.